Etusivu
METAR-TAF:

METAR-TAF

Lentoasemat :

Kruger Mpumalangan kansainvälinen lentoasema

Krugerin luonnonpuisto, Etelä-Afrikka

Leveyspiiri: 25-23-00S, Pituuspiiri: 31-06-20E, korkeus merenpinnasta: 862 m

Tämänhetkinen sää

Tämä raportti tehtiin 25 minuuttia sitten, kello 01.00 UTC
Tuuli 5 kn lännestä/lounaasta
Lämpötila 16°C
Kosteus 45%
Ilmanpaine 1019 hPa

METAR: FAKN 190100Z AUTO 24005KT //// // ////// 16/04 Q1019

Aika: 03:25 (01:25 UTC)

Sääennuste

Tämä raportti tehtiin 16 tuntia ja 25 minuuttia sitten, kello 09.00 UTC
Ennuste voimassa 18. päivästä klo 10 UTC - 18. päivään klo 18 UTC
Tuuli 3 kn eri suunnista
Näkyvyys 10 km tai enemmän
ei pilviä alle 1500 m:ssä eikä cumulonimbus-pilviä

TAF: FAKN 180900Z 1810/1818 VRB03KT CAVOK TX26/1812Z TN15/1818Z

Säähavainnot ja -ennusteet yli 4000 lentoasemalta (METAR- ja TAF-raportit).

Käytössä olevat sääasemat on merkitty karttaan keltaisilla ja punaisilla pisteillä.

Aseta hiiri pisteen päälle nähdäksesi sääaseman nimen.

Klikkaa sitten nähdäksesi säähavainnot ja -ennusteet.

Kartan vaihtaminen: klikkaa mustalla rastilla varustettuja vihreitä pisteitä, niin voit zoomata sisään; viivalla varustettua vihreää pistettä, niin voit zoomata ulos tai vihreitä nuolia, niin pääset viereisille kartoille.


METAR-TAF: